Time;durP1;ratioP1;P1;durP2;ratioP2;P2;SDS_P1;SDS_P2;PMS_P1;PMS_P2;Temp;Humidity;BMP_temperature;BMP_pressure;BME280_temperature;BME280_humidity;BME280_pressure;Samples;Min_cycle;Max_cycle;Signal;HPM_P1;HPM_P2
2023/02/23 00:01:25;;;;;;;34.60;11.90;;;;;;;;;;110588;1266;22012;-77
2023/02/23 00:03:55;;;;;;;34.30;12.40;;;;;;;;;;110578;1275;22343;-77
2023/02/23 00:06:23;;;;;;;33.90;11.60;;;;;;;;;;110453;1259;23103;-77
2023/02/23 00:08:51;;;;;;;29.90;11.60;;;;;;;;;;110294;1277;22794;-76
2023/02/23 00:11:19;;;;;;;37.60;12.50;;;;;;;;;;110414;1277;22146;-77
2023/02/23 00:13:48;;;;;;;34.00;12.70;;;;;;;;;;110570;1276;22941;-77
2023/02/23 00:16:18;;;;;;;37.90;14.70;;;;;;;;;;110547;1253;22117;-77
2023/02/23 00:18:50;;;;;;;42.80;16.20;;;;;;;;;;110610;1275;22676;-77
2023/02/23 00:21:18;;;;;;;35.60;13.70;;;;;;;;;;110491;1275;22890;-76
2023/02/23 00:23:50;;;;;;;33.70;12.40;;;;;;;;;;110569;1275;22897;-78
2023/02/23 00:26:21;;;;;;;34.70;13.40;;;;;;;;;;110877;1256;22137;-77
2023/02/23 00:28:49;;;;;;;35.00;12.70;;;;;;;;;;110614;1276;22085;-77
2023/02/23 00:31:19;;;;;;;30.60;11.20;;;;;;;;;;110391;1276;22147;-76
2023/02/23 00:34:13;;;;;;;29.70;11.70;;;;;;;;;;110255;1276;22112;-77
2023/02/23 00:36:41;;;;;;;34.10;13.40;;;;;;;;;;110924;1256;23170;-77
2023/02/23 00:39:22;;;;;;;35.60;12.60;;;;;;;;;;110559;1276;22981;-77
2023/02/23 00:41:55;;;;;;;36.80;12.70;;;;;;;;;;110458;1276;22091;-77
2023/02/23 00:44:24;;;;;;;33.40;12.50;;;;;;;;;;110444;1276;23206;-77
2023/02/23 00:46:52;;;;;;;38.30;13.20;;;;;;;;;;110639;1259;22100;-74
2023/02/23 00:49:22;;;;;;;36.50;13.40;;;;;;;;;;110575;1275;22033;-74
2023/02/23 00:51:51;;;;;;;37.70;13.20;;;;;;;;;;110599;1276;22166;-75
2023/02/23 00:54:19;;;;;;;39.10;15.30;;;;;;;;;;110589;1276;22131;-75
2023/02/23 00:56:48;;;;;;;35.70;13.00;;;;;;;;;;110722;1257;22177;-75
2023/02/23 00:59:25;;;;;;;38.30;13.50;;;;;;;;;;110531;1276;22143;-75
2023/02/23 01:01:54;;;;;;;35.20;14.00;;;;;;;;;;110426;1276;23265;-75
2023/02/23 01:04:23;;;;;;;36.30;13.30;;;;;;;;;;110502;1276;22145;-76
2023/02/23 01:06:51;;;;;;;38.20;13.30;;;;;;;;;;110560;1259;22145;-75
2023/02/23 01:09:26;;;;;;;39.30;13.50;;;;;;;;;;110349;1276;22111;-75
2023/02/23 01:11:55;;;;;;;37.30;15.10;;;;;;;;;;110488;1276;22513;-76
2023/02/23 01:14:23;;;;;;;44.40;14.90;;;;;;;;;;110295;1276;22480;-76
2023/02/23 01:16:52;;;;;;;43.80;15.80;;;;;;;;;;110658;1257;22415;-75
2023/02/23 01:19:21;;;;;;;43.40;15.10;;;;;;;;;;110634;1276;22151;-75
2023/02/23 01:22:01;;;;;;;42.40;15.60;;;;;;;;;;110443;1276;22110;-75
2023/02/23 01:24:49;;;;;;;44.50;15.10;;;;;;;;;;110599;1276;22296;-75
2023/02/23 01:27:26;;;;;;;41.40;15.50;;;;;;;;;;110539;1256;22232;-75
2023/02/23 01:41:25;;;;;;;47.40;17.30;;;;;;;;;;103680;1295;545676;-82
2023/02/23 01:44:13;;;;;;;46.10;17.30;;;;;;;;;;106036;1288;22692;-78
2023/02/23 01:47:03;;;;;;;49.10;18.30;;;;;;;;;;106083;1288;22777;-79
2023/02/23 01:49:35;;;;;;;43.40;17.30;;;;;;;;;;106062;1288;25428;-76
2023/02/23 01:52:05;;;;;;;48.90;17.90;;;;;;;;;;106016;1272;23906;-77
2023/02/23 01:54:37;;;;;;;50.50;18.40;;;;;;;;;;104442;1285;2379815;-78
2023/02/23 01:57:09;;;;;;;48.00;18.40;;;;;;;;;;106397;1285;24273;-81
2023/02/23 01:59:41;;;;;;;48.30;17.80;;;;;;;;;;106312;1285;26586;-78
2023/02/23 02:02:31;;;;;;;;;;;;;;;;;;;;;
2023/02/23 02:05:18;;;;;;;46.40;18.30;;;;;;;;;;106437;1285;22547;-81
2023/02/23 02:08:12;;;;;;;45.60;17.20;;;;;;;;;;106338;1285;24333;-82
2023/02/23 02:10:43;;;;;;;50.20;17.60;;;;;;;;;;106431;1264;22674;-76
2023/02/23 02:13:34;;;;;;;47.40;16.70;;;;;;;;;;106392;1285;25375;-81
2023/02/23 02:16:35;;;;;;;49.60;17.50;;;;;;;;;;106458;1281;25798;-76
2023/02/23 02:20:05;;;;;;;45.20;16.90;;;;;;;;;;106298;1285;22514;-83
2023/02/23 02:23:35;;;;;;;48.90;18.10;;;;;;;;;;106280;1266;24307;-83
2023/02/23 02:26:24;;;;;;;51.10;18.60;;;;;;;;;;106380;1285;22542;-81
2023/02/23 02:29:09;;;;;;;53.10;18.50;;;;;;;;;;106391;1263;22546;-82
2023/02/23 02:31:59;;;;;;;48.70;17.90;;;;;;;;;;106454;1285;22554;-79
2023/02/23 02:34:44;;;;;;;53.20;18.30;;;;;;;;;;106349;1286;25366;-80
2023/02/23 02:38:00;;;;;;;48.50;18.60;;;;;;;;;;106451;1286;25287;-77
2023/02/23 02:41:34;;;;;;;39.80;15.60;;;;;;;;;;106099;1286;22550;-80
2023/02/23 02:44:55;;;;;;;43.80;16.60;;;;;;;;;;106583;1276;22488;-81
2023/02/23 02:47:59;;;;;;;;;;;;;;;;;;;;;
2023/02/23 02:51:06;;;;;;;45.40;15.90;;;;;;;;;;105955;1291;21719;-81
2023/02/23 02:53:40;;;;;;;48.30;17.00;;;;;;;;;;105757;1272;22542;-84
2023/02/23 02:56:27;;;;;;;40.10;16.50;;;;;;;;;;106063;1286;25226;-77
2023/02/23 04:19:55;;;;;;;44.50;17.10;;;;;;;;;;107026;1275;22539;-79
2023/02/23 04:22:34;;;;;;;;;;;;;;;;;;;;;
2023/02/23 04:25:21;;;;;;;49.40;17.70;;;;;;;;;;107015;1254;23753;-78
2023/02/23 04:27:52;;;;;;;42.70;17.50;;;;;;;;;;106960;1275;24233;-76
2023/02/23 04:30:32;;;;;;;51.30;17.80;;;;;;;;;;106914;1275;22558;-80
2023/02/23 04:33:38;;;;;;;;;;;;;;;;;;;;;
2023/02/23 04:36:44;;;;;;;;;;;;;;;;;;;;;
2023/02/23 04:39:57;;;;;;;48.30;18.30;;;;;;;;;;107081;1275;23880;-80
2023/02/23 04:42:21;;;;;;;39.50;16.90;;;;;;;;;;107114;1275;22530;-77
2023/02/23 04:44:54;;;;;;;47.60;17.50;;;;;;;;;;106774;1275;24181;-78
2023/02/23 04:47:34;;;;;;;42.60;18.30;;;;;;;;;;106848;1267;22580;-76
2023/02/23 04:50:04;;;;;;;47.70;17.90;;;;;;;;;;106949;1275;22681;-79
2023/02/23 04:52:52;;;;;;;48.00;19.30;;;;;;;;;;106963;1275;22506;-79
2023/02/23 04:55:31;;;;;;;50.30;18.90;;;;;;;;;;107063;1275;24168;-76
2023/02/23 04:58:31;;;;;;;45.70;17.80;;;;;;;;;;107665;1250;22523;-79
2023/02/23 05:01:49;;;;;;;49.90;17.80;;;;;;;;;;107612;1268;22527;-78
2023/02/23 05:04:19;;;;;;;50.40;19.10;;;;;;;;;;107802;1268;22527;-80
2023/02/23 05:07:36;;;;;;;44.50;19.00;;;;;;;;;;107845;1250;24358;-78
2023/02/23 05:10:32;;;;;;;45.10;17.40;;;;;;;;;;107899;1268;22597;-77
2023/02/23 05:13:08;;;;;;;45.80;17.90;;;;;;;;;;107756;1268;24193;-78
2023/02/23 05:15:41;;;;;;;45.70;18.00;;;;;;;;;;107628;1268;22524;-79
2023/02/23 05:18:49;;;;;;;47.40;18.90;;;;;;;;;;107425;1261;24190;-78
2023/02/23 05:22:02;;;;;;;43.20;18.40;;;;;;;;;;107825;1268;24199;-81
2023/02/23 05:24:46;;;;;;;;;;;;;;;;;;;;;
2023/02/23 05:27:57;;;;;;;;;;;;;;;;;;;;;
2023/02/23 05:30:49;;;;;;;47.80;18.70;;;;;;;;;;107889;1268;22623;-77
2023/02/23 05:33:44;;;;;;;;;;;;;;;;;;;;;
2023/02/23 05:36:27;;;;;;;56.10;19.10;;;;;;;;;;107686;1268;22527;-78
2023/02/23 05:40:02;;;;;;;51.30;18.00;;;;;;;;;;107423;1263;22529;-80
2023/02/23 05:43:18;;;;;;;48.30;18.30;;;;;;;;;;107641;1269;22527;-81
2023/02/23 05:46:24;;;;;;;51.90;19.10;;;;;;;;;;107227;1273;24230;-77
2023/02/23 05:49:12;;;;;;;47.60;17.30;;;;;;;;;;107207;1257;22658;-83
2023/02/23 05:51:53;;;;;;;49.10;17.60;;;;;;;;;;107189;1273;22771;-78
2023/02/23 05:54:45;;;;;;;42.70;18.10;;;;;;;;;;107068;1273;25452;-79
2023/02/23 05:57:33;;;;;;;49.80;19.00;;;;;;;;;;107161;1250;23658;-78
2023/02/23 06:00:45;;;;;;;;;;;;;;;;;;;;;
2023/02/23 06:03:15;;;;;;;45.60;18.50;;;;;;;;;;107190;1274;24199;-79
2023/02/23 06:05:57;;;;;;;46.30;17.90;;;;;;;;;;107175;1274;22649;-76
2023/02/23 06:08:44;;;;;;;49.50;19.20;;;;;;;;;;106984;1258;23135;-76
2023/02/23 06:11:44;;;;;;;48.10;17.80;;;;;;;;;;107109;1274;23931;-79
2023/02/23 06:14:15;;;;;;;42.90;17.10;;;;;;;;;;107168;1274;23045;-76
2023/02/23 06:16:51;;;;;;;46.50;18.40;;;;;;;;;;106950;1274;22591;-80
2023/02/23 06:19:18;;;;;;;51.70;18.20;;;;;;;;;;106888;1259;25576;-76
2023/02/23 06:22:05;;;;;;;53.60;20.10;;;;;;;;;;107131;1269;25321;-78
2023/02/23 06:24:40;;;;;;;49.10;18.60;;;;;;;;;;107668;1269;23905;-76
2023/02/23 06:27:13;;;;;;;43.80;18.30;;;;;;;;;;107588;1269;22527;-76
2023/02/23 06:30:14;;;;;;;43.20;17.70;;;;;;;;;;107428;1253;22605;-80
2023/02/23 06:32:50;;;;;;;45.40;18.00;;;;;;;;;;107736;1269;25280;-78
2023/02/23 06:35:19;;;;;;;70.60;19.10;;;;;;;;;;107605;1269;22532;-77
2023/02/23 06:37:50;;;;;;;47.20;17.00;;;;;;;;;;107739;1269;24298;-82
2023/02/23 06:40:30;;;;;;;52.00;18.80;;;;;;;;;;107635;1261;22528;-75
2023/02/23 06:42:59;;;;;;;51.40;17.30;;;;;;;;;;107725;1269;24230;-76
2023/02/23 06:45:56;;;;;;;44.80;17.80;;;;;;;;;;107733;1268;21792;-76
2023/02/23 06:48:35;;;;;;;41.10;18.00;;;;;;;;;;107723;1248;22525;-82
2023/02/23 06:51:02;;;;;;;44.80;18.10;;;;;;;;;;107372;1269;25295;-75
2023/02/23 06:53:32;;;;;;;48.70;19.10;;;;;;;;;;107363;1269;22581;-77
2023/02/23 06:56:02;;;;;;;45.80;18.80;;;;;;;;;;107606;1269;24286;-76
2023/02/23 06:58:31;;;;;;;45.70;19.10;;;;;;;;;;107615;1269;22521;-75
2023/02/23 07:00:58;;;;;;;43.50;18.00;;;;;;;;;;107351;1269;22529;-77
2023/02/23 07:03:34;;;;;;;49.50;20.40;;;;;;;;;;107553;1269;22996;-76
2023/02/23 07:06:04;;;;;;;48.30;18.90;;;;;;;;;;107745;1269;23680;-78
2023/02/23 07:09:02;;;;;;;;;;;;;;;;;;;;;
2023/02/23 07:11:52;;;;;;;50.50;21.40;;;;;;;;;;107867;1261;22549;-83
2023/02/23 07:15:10;;;;;;;49.90;21.70;;;;;;;;;;107750;1268;22527;-81
2023/02/23 07:17:55;;;;;;;51.00;22.10;;;;;;;;;;107822;1268;22523;-84
2023/02/23 07:20:56;;;;;;;49.60;20.70;;;;;;;;;;107760;1250;22547;-80
2023/02/23 07:24:17;;;;;;;50.40;20.00;;;;;;;;;;107680;1267;22738;-85
2023/02/23 07:27:18;;;;;;;44.40;18.70;;;;;;;;;;107780;1269;22530;-81
2023/02/23 07:30:11;;;;;;;46.80;19.50;;;;;;;;;;107832;1269;23918;-82
2023/02/23 07:32:51;;;;;;;52.30;19.80;;;;;;;;;;107659;1269;22610;-82
2023/02/23 07:35:26;;;;;;;48.70;20.00;;;;;;;;;;107734;1269;24507;-78
2023/02/23 07:37:54;;;;;;;51.50;20.60;;;;;;;;;;107557;1269;22546;-80
2023/02/23 07:40:41;;;;;;;;;;;;;;;;;;;;;
2023/02/23 07:43:13;;;;;;;46.00;20.40;;;;;;;;;;107738;1269;26481;-78
2023/02/23 07:45:44;;;;;;;50.60;20.50;;;;;;;;;;107483;1269;25357;-78
2023/02/23 07:48:19;;;;;;;46.60;20.30;;;;;;;;;;107494;1269;24384;-81
2023/02/23 07:50:47;;;;;;;43.80;19.70;;;;;;;;;;107525;1269;24231;-82
2023/02/23 07:53:26;;;;;;;49.90;19.70;;;;;;;;;;107510;1269;22525;-80
2023/02/23 07:56:07;;;;;;;47.20;20.00;;;;;;;;;;107377;1269;22530;-80
2023/02/23 07:58:40;;;;;;;46.40;20.20;;;;;;;;;;107655;1269;22663;-77
2023/02/23 08:01:11;;;;;;;48.40;21.30;;;;;;;;;;107515;1251;24379;-82
2023/02/23 08:03:48;;;;;;;47.00;21.70;;;;;;;;;;107318;1269;23895;-77
2023/02/23 08:06:18;;;;;;;44.40;20.90;;;;;;;;;;107499;1269;24207;-78
2023/02/23 08:08:48;;;;;;;48.70;21.80;;;;;;;;;;107391;1269;25530;-76
2023/02/23 08:11:34;;;;;;;;;;;;;;;;;;;;;
2023/02/23 08:14:09;;;;;;;45.80;20.10;;;;;;;;;;107577;1269;22774;-76
2023/02/23 08:16:47;;;;;;;44.10;19.00;;;;;;;;;;107310;1269;25395;-80
2023/02/23 08:19:16;;;;;;;42.20;18.70;;;;;;;;;;107680;1269;22544;-81
2023/02/23 08:21:49;;;;;;;41.00;18.30;;;;;;;;;;107597;1252;23173;-79
2023/02/23 08:24:19;;;;;;;42.80;18.40;;;;;;;;;;107476;1269;22527;-81
2023/02/23 08:26:46;;;;;;;43.50;18.70;;;;;;;;;;107589;1269;22540;-82
2023/02/23 08:29:13;;;;;;;40.00;18.70;;;;;;;;;;107348;1269;22841;-80
2023/02/23 08:32:02;;;;;;;;;;;;;;;;;;;;;
2023/02/23 08:34:29;;;;;;;42.70;18.70;;;;;;;;;;107700;1268;25514;-76
2023/02/23 08:36:59;;;;;;;40.90;17.90;;;;;;;;;;107532;1268;22647;-77
2023/02/23 08:39:31;;;;;;;42.10;19.40;;;;;;;;;;107768;1268;22530;-82
2023/02/23 08:42:10;;;;;;;38.70;18.00;;;;;;;;;;107438;1269;22531;-77
2023/02/23 08:44:43;;;;;;;39.30;18.30;;;;;;;;;;107431;1269;22533;-77
2023/02/23 08:47:15;;;;;;;43.60;19.10;;;;;;;;;;107763;1247;25284;-80
2023/02/23 08:49:48;;;;;;;44.80;20.20;;;;;;;;;;107455;1269;24236;-80
2023/02/23 08:52:15;;;;;;;39.90;18.60;;;;;;;;;;107475;1250;24321;-81
2023/02/23 08:54:51;;;;;;;43.50;18.40;;;;;;;;;;107804;1269;22536;-78
2023/02/23 08:57:25;;;;;;;37.70;18.60;;;;;;;;;;107463;1269;24368;-83
2023/02/23 09:00:01;;;;;;;38.00;18.10;;;;;;;;;;107542;1269;24316;-82
2023/02/23 09:02:35;;;;;;;37.30;16.70;;;;;;;;;;107673;1249;25475;-82
2023/02/23 09:05:16;;;;;;;39.60;17.60;;;;;;;;;;107390;1266;22527;-81
2023/02/23 09:07:45;;;;;;;36.20;17.50;;;;;;;;;;107579;1269;24295;-79
2023/02/23 09:10:23;;;;;;;34.80;17.10;;;;;;;;;;107732;1269;22647;-78
2023/02/23 09:12:55;;;;;;;33.90;17.20;;;;;;;;;;107687;1251;24347;-81
2023/02/23 09:15:25;;;;;;;37.80;16.20;;;;;;;;;;107631;1269;22612;-79
2023/02/23 09:18:01;;;;;;;36.20;17.00;;;;;;;;;;107332;1269;25357;-77
2023/02/23 09:20:32;;;;;;;31.60;16.30;;;;;;;;;;107545;1268;22643;-77
2023/02/23 09:23:27;;;;;;;31.40;15.80;;;;;;;;;;107534;1250;25286;-76
2023/02/23 09:26:22;;;;;;;32.00;15.50;;;;;;;;;;107713;1269;22544;-81
2023/02/23 09:28:49;;;;;;;35.20;16.00;;;;;;;;;;107604;1269;22736;-76
2023/02/23 09:31:26;;;;;;;34.50;16.40;;;;;;;;;;107718;1269;23118;-80
2023/02/23 09:33:53;;;;;;;32.40;15.20;;;;;;;;;;107776;1263;22531;-77
2023/02/23 09:37:00;;;;;;;32.60;15.80;;;;;;;;;;107741;1268;22540;-83
2023/02/23 09:39:34;;;;;;;33.90;16.10;;;;;;;;;;107557;1268;25569;-81
2023/02/23 09:42:10;;;;;;;30.50;15.20;;;;;;;;;;107374;1269;22604;-80
2023/02/23 09:44:40;;;;;;;32.00;15.60;;;;;;;;;;107466;1269;24196;-81
2023/02/23 09:47:17;;;;;;;31.60;16.10;;;;;;;;;;107523;1269;24239;-83
2023/02/23 09:49:50;;;;;;;37.50;19.10;;;;;;;;;;107539;1269;22917;-77
2023/02/23 09:52:21;;;;;;;38.70;21.00;;;;;;;;;;107433;1269;22789;-81
2023/02/23 09:54:56;;;;;;;35.50;17.90;;;;;;;;;;107765;1250;22609;-81
2023/02/23 09:57:36;;;;;;;31.40;16.10;;;;;;;;;;107708;1269;25278;-79
2023/02/23 10:00:14;;;;;;;34.50;17.10;;;;;;;;;;107590;1269;24369;-78
2023/02/23 10:02:56;;;;;;;36.60;17.20;;;;;;;;;;107603;1269;25313;-76
2023/02/23 10:05:30;;;;;;;32.60;17.10;;;;;;;;;;107391;1260;25240;-79
2023/02/23 10:08:10;;;;;;;32.20;15.70;;;;;;;;;;107474;1269;22541;-77
2023/02/23 10:10:46;;;;;;;37.30;16.70;;;;;;;;;;107615;1269;22627;-80
2023/02/23 10:13:32;;;;;;;35.20;14.90;;;;;;;;;;107678;1247;22601;-81
2023/02/23 10:16:09;;;;;;;29.70;15.20;;;;;;;;;;107668;1269;22486;-79
2023/02/23 10:18:43;;;;;;;31.80;16.30;;;;;;;;;;107707;1269;22977;-77
2023/02/23 10:21:18;;;;;;;32.20;16.80;;;;;;;;;;107570;1269;25513;-82
2023/02/23 10:24:03;;;;;;;35.70;17.40;;;;;;;;;;107523;1247;25343;-77
2023/02/23 10:26:42;;;;;;;35.30;16.40;;;;;;;;;;107627;1267;22482;-77
2023/02/23 10:29:18;;;;;;;34.00;16.00;;;;;;;;;;107615;1269;22524;-83
2023/02/23 10:31:47;;;;;;;31.80;16.40;;;;;;;;;;107359;1269;23906;-81
2023/02/23 10:34:18;;;;;;;28.50;14.40;;;;;;;;;;107436;1251;22540;-77
2023/02/23 10:37:15;;;;;;;29.30;14.40;;;;;;;;;;107380;1269;22530;-80
2023/02/23 10:39:42;;;;;;;27.50;13.40;;;;;;;;;;107750;1269;22530;-77
2023/02/23 10:42:30;;;;;;;28.40;13.60;;;;;;;;;;107532;1267;24344;-81
2023/02/23 10:45:04;;;;;;;26.40;12.90;;;;;;;;;;107493;1269;22781;-77
2023/02/23 10:47:32;;;;;;;16.90;7.20;;;;;;;;;;107404;1269;24365;-77
2023/02/23 10:50:02;;;;;;;13.30;6.40;;;;;;;;;;107503;1269;22542;-80
2023/02/23 10:52:29;;;;;;;16.40;7.10;;;;;;;;;;107736;1268;22702;-82
2023/02/23 10:55:43;;;;;;;27.10;11.90;;;;;;;;;;103702;1294;544913;-81
2023/02/23 10:58:15;;;;;;;21.40;10.30;;;;;;;;;;106011;1287;25526;-77
2023/02/23 11:00:57;;;;;;;17.10;7.40;;;;;;;;;;105939;1288;22576;-77
2023/02/23 11:03:27;;;;;;;14.90;7.20;;;;;;;;;;106399;1281;24225;-79
2023/02/23 11:06:00;;;;;;;14.10;6.50;;;;;;;;;;106063;1285;22751;-78
2023/02/23 11:08:29;;;;;;;16.50;7.70;;;;;;;;;;104608;1283;2288673;-78
2023/02/23 11:11:01;;;;;;;13.40;6.00;;;;;;;;;;106471;1283;24247;-77
2023/02/23 11:13:35;;;;;;;14.10;5.60;;;;;;;;;;106531;1280;22586;-77
2023/02/23 11:16:08;;;;;;;45.50;19.00;;;;;;;;;;106482;1268;24295;-79
2023/02/23 11:18:36;;;;;;;54.60;33.40;;;;;;;;;;106546;1283;22727;-80
2023/02/23 11:21:08;;;;;;;48.60;27.70;;;;;;;;;;106463;1283;25303;-81
2023/02/23 11:23:35;;;;;;;47.60;35.60;;;;;;;;;;106903;1256;24183;-82
2023/02/23 11:26:05;;;;;;;31.80;23.50;;;;;;;;;;106807;1262;22670;-84
2023/02/23 11:28:42;;;;;;;119.90;100.60;;;;;;;;;;106840;1277;22539;-84
2023/02/23 11:31:20;;;;;;;45.80;31.40;;;;;;;;;;106934;1257;24227;-76
2023/02/23 11:33:48;;;;;;;22.10;15.60;;;;;;;;;;106860;1277;25008;-77
2023/02/23 11:36:26;;;;;;;59.70;39.40;;;;;;;;;;106956;1262;25311;-81
2023/02/23 11:39:00;;;;;;;138.20;103.00;;;;;;;;;;106850;1278;22530;-81
2023/02/23 11:41:30;;;;;;;50.30;28.70;;;;;;;;;;106958;1277;22536;-80
2023/02/23 11:43:58;;;;;;;90.80;67.40;;;;;;;;;;106912;1277;25304;-78
2023/02/23 11:46:29;;;;;;;79.40;62.90;;;;;;;;;;106683;1259;22536;-84
2023/02/23 11:48:58;;;;;;;35.30;21.90;;;;;;;;;;106877;1277;22533;-84
2023/02/23 11:51:28;;;;;;;33.20;24.10;;;;;;;;;;106901;1275;22629;-76
2023/02/23 11:53:55;;;;;;;25.30;16.60;;;;;;;;;;106791;1277;22643;-77
2023/02/23 11:56:33;;;;;;;20.80;9.40;;;;;;;;;;106712;1277;22539;-81
2023/02/23 11:59:06;;;;;;;16.50;10.10;;;;;;;;;;106756;1277;22533;-78
2023/02/23 12:01:42;;;;;;;11.90;6.50;;;;;;;;;;106838;1277;22947;-80
2023/02/23 12:04:30;;;;;;;15.10;6.70;;;;;;;;;;106815;1277;22542;-76
2023/02/23 12:07:20;;;;;;;20.90;8.80;;;;;;;;;;106836;1260;25582;-79
2023/02/23 12:09:47;;;;;;;16.70;7.50;;;;;;;;;;106384;1284;22526;-79
2023/02/23 12:12:17;;;;;;;18.50;8.10;;;;;;;;;;106423;1284;22538;-80
2023/02/23 12:14:50;;;;;;;15.40;6.10;;;;;;;;;;106466;1284;22546;-78
2023/02/23 12:17:26;;;;;;;32.60;7.60;;;;;;;;;;106377;1266;24261;-81
2023/02/23 12:19:52;;;;;;;102.20;67.60;;;;;;;;;;106144;1284;22551;-76
2023/02/23 12:22:22;;;;;;;48.10;22.90;;;;;;;;;;106381;1284;22571;-76
2023/02/23 12:24:53;;;;;;;51.30;31.50;;;;;;;;;;106536;1281;22650;-78
2023/02/23 12:27:30;;;;;;;176.90;88.80;;;;;;;;;;106564;1264;25179;-76
2023/02/23 12:30:15;;;;;;;28.70;13.80;;;;;;;;;;106561;1281;25278;-80
2023/02/23 12:33:01;;;;;;;31.70;14.40;;;;;;;;;;103857;1294;545198;-80
2023/02/23 12:35:40;;;;;;;91.60;52.50;;;;;;;;;;106192;1288;22549;-78
2023/02/23 12:38:14;;;;;;;97.70;68.40;;;;;;;;;;106076;1288;24208;-79
2023/02/23 12:40:43;;;;;;;32.40;19.20;;;;;;;;;;106115;1278;24302;-81
2023/02/23 12:43:24;;;;;;;20.80;8.30;;;;;;;;;;106059;1276;22549;-80
2023/02/23 12:46:10;;;;;;;27.20;18.40;;;;;;;;;;104482;1286;2267363;-78
2023/02/23 12:48:56;;;;;;;13.80;8.20;;;;;;;;;;106436;1286;25576;-77
2023/02/23 12:51:26;;;;;;;67.10;48.00;;;;;;;;;;106383;1275;22543;-82
2023/02/23 12:53:56;;;;;;;72.70;50.50;;;;;;;;;;106171;1269;22691;-84
2023/02/23 12:56:42;;;;;;;74.50;61.40;;;;;;;;;;106377;1287;22668;-81
2023/02/23 12:59:35;;;;;;;35.60;26.20;;;;;;;;;;106127;1287;24263;-78
2023/02/23 13:02:07;;;;;;;43.30;35.10;;;;;;;;;;106539;1280;25294;-87
2023/02/23 13:05:01;;;;;;;20.20;13.80;;;;;;;;;;106784;1279;24265;-77
2023/02/23 13:07:33;;;;;;;19.20;11.70;;;;;;;;;;106888;1279;24251;-78
2023/02/23 13:10:08;;;;;;;50.30;29.70;;;;;;;;;;106917;1277;25350;-77
2023/02/23 13:12:38;;;;;;;54.30;40.50;;;;;;;;;;106674;1270;22537;-79
2023/02/23 13:15:26;;;;;;;44.70;32.90;;;;;;;;;;106924;1277;22526;-78
2023/02/23 13:18:05;;;;;;;28.30;17.90;;;;;;;;;;106899;1277;25369;-80
2023/02/23 13:20:40;;;;;;;113.30;98.20;;;;;;;;;;106993;1265;22537;-82
2023/02/23 13:23:10;;;;;;;32.40;21.70;;;;;;;;;;107128;1253;22527;-82
2023/02/23 13:25:37;;;;;;;35.00;23.00;;;;;;;;;;106924;1275;24193;-79
2023/02/23 13:28:05;;;;;;;24.40;12.30;;;;;;;;;;106922;1275;24354;-77
2023/02/23 13:30:32;;;;;;;86.70;60.80;;;;;;;;;;106910;1275;22588;-82
2023/02/23 13:33:14;;;;;;;78.30;52.30;;;;;;;;;;106930;1256;23316;-80
2023/02/23 13:35:41;;;;;;;39.40;24.00;;;;;;;;;;107110;1274;24253;-78
2023/02/23 13:38:16;;;;;;;34.60;21.20;;;;;;;;;;106949;1274;23003;-78
2023/02/23 13:40:53;;;;;;;44.60;29.20;;;;;;;;;;107009;1274;22538;-83
2023/02/23 13:43:27;;;;;;;47.00;31.00;;;;;;;;;;107169;1254;25381;-79
2023/02/23 13:46:10;;;;;;;30.00;17.50;;;;;;;;;;106956;1275;25366;-79
2023/02/23 13:48:40;;;;;;;51.00;30.50;;;;;;;;;;106966;1275;24339;-79
2023/02/23 13:51:13;;;;;;;93.10;57.20;;;;;;;;;;106934;1275;22493;-75
2023/02/23 13:53:40;;;;;;;80.00;47.60;;;;;;;;;;106890;1275;22530;-81
2023/02/23 13:56:14;;;;;;;47.20;24.20;;;;;;;;;;106991;1271;22666;-77
2023/02/23 13:58:45;;;;;;;28.30;13.70;;;;;;;;;;106835;1275;25274;-76
2023/02/23 14:01:20;;;;;;;45.40;27.00;;;;;;;;;;107043;1274;22545;-80
2023/02/23 14:03:55;;;;;;;101.30;57.70;;;;;;;;;;106926;1254;22533;-77
2023/02/23 14:06:24;;;;;;;156.10;91.50;;;;;;;;;;106942;1275;22649;-80
2023/02/23 14:08:53;;;;;;;107.90;56.90;;;;;;;;;;106907;1275;23880;-83
2023/02/23 14:11:28;;;;;;;57.00;30.50;;;;;;;;;;107067;1275;24239;-75
2023/02/23 14:13:59;;;;;;;29.70;17.10;;;;;;;;;;106981;1252;25275;-79
2023/02/23 14:16:26;;;;;;;35.40;20.50;;;;;;;;;;106953;1274;22621;-77
2023/02/23 14:19:02;;;;;;;41.50;22.50;;;;;;;;;;106906;1275;24299;-83
2023/02/23 14:21:42;;;;;;;57.40;30.70;;;;;;;;;;107028;1275;22626;-80
2023/02/23 14:24:16;;;;;;;72.80;39.50;;;;;;;;;;107036;1261;22543;-79
2023/02/23 14:26:44;;;;;;;132.40;65.90;;;;;;;;;;107066;1274;22542;-83
2023/02/23 14:29:53;;;;;;;90.40;45.40;;;;;;;;;;107039;1266;22533;-80
2023/02/23 14:32:23;;;;;;;27.30;14.50;;;;;;;;;;106763;1280;22529;-78
2023/02/23 14:34:59;;;;;;;90.00;45.50;;;;;;;;;;106748;1267;25379;-77
2023/02/23 14:38:08;;;;;;;171.60;77.70;;;;;;;;;;106923;1280;25366;-80
2023/02/23 14:40:45;;;;;;;377.40;239.70;;;;;;;;;;106749;1280;22555;-78
2023/02/23 14:43:40;;;;;;;239.80;131.20;;;;;;;;;;106890;1280;24470;-80
2023/02/23 14:46:10;;;;;;;54.90;38.70;;;;;;;;;;106637;1263;24282;-79
2023/02/23 14:48:41;;;;;;;100.80;74.80;;;;;;;;;;106527;1282;25348;-79
2023/02/23 14:51:19;;;;;;;269.00;188.50;;;;;;;;;;106870;1280;25328;-81
2023/02/23 14:53:52;;;;;;;125.90;86.00;;;;;;;;;;106698;1277;22777;-79
2023/02/23 14:56:31;;;;;;;43.60;30.90;;;;;;;;;;106791;1270;22554;-81
2023/02/23 14:59:26;;;;;;;65.10;42.80;;;;;;;;;;106540;1280;22976;-85
2023/02/23 15:02:05;;;;;;;155.50;104.60;;;;;;;;;;106775;1277;22540;-80
2023/02/23 15:04:37;;;;;;;93.30;63.50;;;;;;;;;;107166;1273;24041;-79
2023/02/23 15:07:17;;;;;;;230.30;141.50;;;;;;;;;;107247;1267;24242;-84
2023/02/23 15:09:50;;;;;;;82.20;50.40;;;;;;;;;;107197;1269;24347;-81
2023/02/23 15:12:25;;;;;;;100.30;67.10;;;;;;;;;;107304;1273;22537;-81
2023/02/23 15:14:56;;;;;;;129.20;87.60;;;;;;;;;;107106;1272;24348;-79
2023/02/23 15:17:35;;;;;;;60.20;40.10;;;;;;;;;;107161;1270;24217;-80
2023/02/23 15:20:14;;;;;;;125.70;75.70;;;;;;;;;;107156;1267;25331;-82
2023/02/23 15:23:05;;;;;;;154.80;98.60;;;;;;;;;;107267;1274;24224;-83
2023/02/23 15:25:38;;;;;;;202.40;135.00;;;;;;;;;;107187;1260;22537;-81
2023/02/23 15:28:33;;;;;;;217.90;157.90;;;;;;;;;;107335;1274;25359;-83
2023/02/23 15:31:17;;;;;;;139.60;89.60;;;;;;;;;;107085;1254;22588;-81
2023/02/23 15:33:52;;;;;;;384.70;264.90;;;;;;;;;;107143;1277;24227;-80
2023/02/23 15:36:43;;;;;;;263.20;175.50;;;;;;;;;;107173;1257;23131;-82
2023/02/23 15:39:13;;;;;;;337.80;235.30;;;;;;;;;;107026;1276;22688;-82
2023/02/23 15:41:42;;;;;;;260.70;171.10;;;;;;;;;;106952;1276;25328;-81
2023/02/23 15:44:27;;;;;;;123.00;74.50;;;;;;;;;;106882;1276;22529;-77
2023/02/23 15:46:56;;;;;;;72.70;42.10;;;;;;;;;;106809;1270;25331;-79
2023/02/23 15:49:31;;;;;;;66.50;34.50;;;;;;;;;;106868;1276;24237;-75
2023/02/23 15:52:01;;;;;;;80.20;45.40;;;;;;;;;;106904;1276;24227;-76
2023/02/23 15:54:30;;;;;;;134.30;75.20;;;;;;;;;;106856;1276;22548;-75
2023/02/23 15:57:01;;;;;;;986.50;575.60;;;;;;;;;;106856;1253;24194;-76
2023/02/23 15:59:33;;;;;;;619.80;348.20;;;;;;;;;;106819;1277;24222;-76
2023/02/23 16:02:02;;;;;;;651.20;352.20;;;;;;;;;;106832;1275;23915;-79
2023/02/23 16:04:35;;;;;;;1516.60;781.70;;;;;;;;;;106867;1265;22668;-78
2023/02/23 16:07:25;;;;;;;808.40;456.80;;;;;;;;;;106944;1258;24196;-80
2023/02/23 16:10:01;;;;;;;171.00;71.10;;;;;;;;;;110625;1275;22269;-75
2023/02/23 16:12:32;;;;;;;189.00;81.10;;;;;;;;;;110481;1272;22142;-75
2023/02/23 16:15:01;;;;;;;278.40;136.50;;;;;;;;;;110641;1276;22114;-74
2023/02/23 16:17:41;;;;;;;161.80;65.90;;;;;;;;;;110550;1257;22799;-76
2023/02/23 16:20:27;;;;;;;553.30;361.90;;;;;;;;;;110451;1276;22189;-74
2023/02/23 16:22:55;;;;;;;132.00;64.40;;;;;;;;;;110652;1276;22124;-74
2023/02/23 16:25:24;;;;;;;56.90;28.40;;;;;;;;;;110305;1276;22183;-76
2023/02/23 16:27:58;;;;;;;73.10;33.80;;;;;;;;;;110416;1256;23008;-75
2023/02/23 16:30:31;;;;;;;75.20;34.80;;;;;;;;;;110570;1275;22885;-75
2023/02/23 16:33:07;;;;;;;59.70;25.60;;;;;;;;;;110584;1275;23297;-76
2023/02/23 16:35:40;;;;;;;50.30;18.30;;;;;;;;;;110558;1274;22120;-76
2023/02/23 16:38:19;;;;;;;77.90;35.80;;;;;;;;;;110463;1262;22207;-78
2023/02/23 16:40:47;;;;;;;72.70;34.30;;;;;;;;;;110578;1276;22127;-76
2023/02/23 16:43:18;;;;;;;62.60;27.70;;;;;;;;;;110537;1276;22142;-77
2023/02/23 16:45:45;;;;;;;89.90;37.90;;;;;;;;;;110626;1275;21983;-75
2023/02/23 16:48:17;;;;;;;170.60;67.80;;;;;;;;;;110692;1258;22304;-75
2023/02/23 16:50:44;;;;;;;61.90;27.60;;;;;;;;;;110342;1275;22186;-75
2023/02/23 16:53:11;;;;;;;107.50;46.90;;;;;;;;;;110680;1275;22122;-75
2023/02/23 16:55:39;;;;;;;127.10;57.80;;;;;;;;;;110619;1274;22209;-75